Terminal Aerodrome Forecast
Issued by NWS

Home | Current Version | Previous Version | Text Only | Print | Product List | Glossary On
Versions: 1 2 3 4 5 6 7 8 9 10 11 12 13
000
FTUS42 TJSJ 031700 RRA
TAFJMZ
TAF
TJMZ 031741Z 0318/0418 08012KT P6SM SCT025 BKN040
     FM032230 05005KT P6SM SKC
     FM041530 07012KT P6SM SCT025 SCT040
      AMD NOT SKED=

USA.gov is the U.S. government's official web portal to all federal, state and local government web resources and services.